sensor_id;sensor_type;location;lat;lon;timestamp;temperature;humidity
12015;DHT22;6066;48.138;16.402;2023-02-22T00:01:15;9.80;99.90
12015;DHT22;6066;48.138;16.402;2023-02-22T00:03:48;9.80;99.90
12015;DHT22;6066;48.138;16.402;2023-02-22T00:06:16;9.90;99.90
12015;DHT22;6066;48.138;16.402;2023-02-22T00:08:43;9.90;99.90
12015;DHT22;6066;48.138;16.402;2023-02-22T00:11:11;9.90;99.90
12015;DHT22;6066;48.138;16.402;2023-02-22T00:13:39;9.90;99.90
12015;DHT22;6066;48.138;16.402;2023-02-22T00:16:08;9.90;99.90
12015;DHT22;6066;48.138;16.402;2023-02-22T00:18:37;9.90;99.90
12015;DHT22;6066;48.138;16.402;2023-02-22T00:21:04;9.80;99.90
12015;DHT22;6066;48.138;16.402;2023-02-22T00:23:34;9.80;99.90
12015;DHT22;6066;48.138;16.402;2023-02-22T00:26:04;9.90;99.90
12015;DHT22;6066;48.138;16.402;2023-02-22T00:28:35;10.00;99.90
12015;DHT22;6066;48.138;16.402;2023-02-22T00:31:02;10.10;99.90
12015;DHT22;6066;48.138;16.402;2023-02-22T00:33:29;10.10;99.90
12015;DHT22;6066;48.138;16.402;2023-02-22T00:35:56;10.10;99.90
12015;DHT22;6066;48.138;16.402;2023-02-22T00:38:23;10.10;99.90
12015;DHT22;6066;48.138;16.402;2023-02-22T00:40:49;10.10;99.90
12015;DHT22;6066;48.138;16.402;2023-02-22T00:43:16;10.10;99.90
12015;DHT22;6066;48.138;16.402;2023-02-22T00:45:44;10.10;99.90
12015;DHT22;6066;48.138;16.402;2023-02-22T00:48:11;10.00;99.90
12015;DHT22;6066;48.138;16.402;2023-02-22T00:50:37;9.90;99.90
12015;DHT22;6066;48.138;16.402;2023-02-22T00:53:04;9.90;99.90
12015;DHT22;6066;48.138;16.402;2023-02-22T00:55:32;9.90;99.90
12015;DHT22;6066;48.138;16.402;2023-02-22T00:57:59;9.80;99.90
12015;DHT22;6066;48.138;16.402;2023-02-22T01:00:27;9.80;99.90
12015;DHT22;6066;48.138;16.402;2023-02-22T01:02:55;9.80;99.90
12015;DHT22;6066;48.138;16.402;2023-02-22T01:05:22;9.90;99.90
12015;DHT22;6066;48.138;16.402;2023-02-22T01:07:50;9.90;99.90
12015;DHT22;6066;48.138;16.402;2023-02-22T01:10:17;9.90;99.90
12015;DHT22;6066;48.138;16.402;2023-02-22T01:12:44;9.80;99.90
12015;DHT22;6066;48.138;16.402;2023-02-22T01:15:11;9.80;99.90
12015;DHT22;6066;48.138;16.402;2023-02-22T01:17:38;9.80;99.90
12015;DHT22;6066;48.138;16.402;2023-02-22T01:20:09;9.80;99.90
12015;DHT22;6066;48.138;16.402;2023-02-22T01:22:38;9.90;99.90
12015;DHT22;6066;48.138;16.402;2023-02-22T01:25:05;9.90;99.90
12015;DHT22;6066;48.138;16.402;2023-02-22T01:27:32;9.90;99.90
12015;DHT22;6066;48.138;16.402;2023-02-22T01:29:59;9.80;99.90
12015;DHT22;6066;48.138;16.402;2023-02-22T01:32:26;9.80;99.90
12015;DHT22;6066;48.138;16.402;2023-02-22T01:34:53;9.70;99.90
12015;DHT22;6066;48.138;16.402;2023-02-22T01:37:21;9.60;99.90
12015;DHT22;6066;48.138;16.402;2023-02-22T01:39:47;9.60;99.90
12015;DHT22;6066;48.138;16.402;2023-02-22T01:42:14;9.50;99.90
12015;DHT22;6066;48.138;16.402;2023-02-22T01:44:40;9.50;99.90
12015;DHT22;6066;48.138;16.402;2023-02-22T01:47:07;9.40;99.90
12015;DHT22;6066;48.138;16.402;2023-02-22T01:49:35;9.30;99.90
12015;DHT22;6066;48.138;16.402;2023-02-22T01:52:04;9.30;99.90
12015;DHT22;6066;48.138;16.402;2023-02-22T01:54:34;9.30;99.90
12015;DHT22;6066;48.138;16.402;2023-02-22T01:57:03;9.30;99.90
12015;DHT22;6066;48.138;16.402;2023-02-22T01:59:33;9.20;99.90
12015;DHT22;6066;48.138;16.402;2023-02-22T02:02:01;9.20;99.90
12015;DHT22;6066;48.138;16.402;2023-02-22T02:04:28;9.20;99.90
12015;DHT22;6066;48.138;16.402;2023-02-22T02:06:57;9.20;99.90
12015;DHT22;6066;48.138;16.402;2023-02-22T02:09:26;9.20;99.90
12015;DHT22;6066;48.138;16.402;2023-02-22T02:11:57;9.20;99.90
12015;DHT22;6066;48.138;16.402;2023-02-22T02:14:25;9.20;99.90
12015;DHT22;6066;48.138;16.402;2023-02-22T02:16:52;9.20;99.90
12015;DHT22;6066;48.138;16.402;2023-02-22T02:19:22;9.20;99.90
12015;DHT22;6066;48.138;16.402;2023-02-22T02:22:06;9.30;99.90
12015;DHT22;6066;48.138;16.402;2023-02-22T02:24:43;9.30;99.90
12015;DHT22;6066;48.138;16.402;2023-02-22T02:27:19;9.40;99.90
12015;DHT22;6066;48.138;16.402;2023-02-22T02:32:36;9.50;99.90
12015;DHT22;6066;48.138;16.402;2023-02-22T02:35:05;9.50;99.90
12015;DHT22;6066;48.138;16.402;2023-02-22T02:37:39;9.50;99.90
12015;DHT22;6066;48.138;16.402;2023-02-22T02:40:10;9.60;99.90
12015;DHT22;6066;48.138;16.402;2023-02-22T02:42:37;9.70;99.90
12015;DHT22;6066;48.138;16.402;2023-02-22T02:45:07;9.70;99.90
12015;DHT22;6066;48.138;16.402;2023-02-22T02:47:37;9.80;99.90
12015;DHT22;6066;48.138;16.402;2023-02-22T02:50:07;9.80;99.90
12015;DHT22;6066;48.138;16.402;2023-02-22T02:52:34;9.90;99.90
12015;DHT22;6066;48.138;16.402;2023-02-22T02:55:02;9.90;99.90
12015;DHT22;6066;48.138;16.402;2023-02-22T02:57:29;9.90;99.90
12015;DHT22;6066;48.138;16.402;2023-02-22T02:59:56;9.90;99.90
12015;DHT22;6066;48.138;16.402;2023-02-22T03:02:26;9.90;99.90
12015;DHT22;6066;48.138;16.402;2023-02-22T03:05:04;9.90;99.90
12015;DHT22;6066;48.138;16.402;2023-02-22T03:07:43;9.90;99.90
12015;DHT22;6066;48.138;16.402;2023-02-22T03:10:19;9.90;99.90
12015;DHT22;6066;48.138;16.402;2023-02-22T03:12:52;9.90;99.90
12015;DHT22;6066;48.138;16.402;2023-02-22T03:15:27;9.80;99.90
12015;DHT22;6066;48.138;16.402;2023-02-22T03:18:00;9.70;99.90
12015;DHT22;6066;48.138;16.402;2023-02-22T03:20:30;9.70;99.90
12015;DHT22;6066;48.138;16.402;2023-02-22T03:23:00;9.70;99.90
12015;DHT22;6066;48.138;16.402;2023-02-22T03:25:29;9.70;99.90
12015;DHT22;6066;48.138;16.402;2023-02-22T03:27:59;9.60;99.90
12015;DHT22;6066;48.138;16.402;2023-02-22T03:30:30;9.60;99.90
12015;DHT22;6066;48.138;16.402;2023-02-22T03:32:59;9.60;99.90
12015;DHT22;6066;48.138;16.402;2023-02-22T03:35:28;9.60;99.90
12015;DHT22;6066;48.138;16.402;2023-02-22T03:37:58;9.60;99.90
12015;DHT22;6066;48.138;16.402;2023-02-22T03:40:28;9.60;99.90
12015;DHT22;6066;48.138;16.402;2023-02-22T03:42:58;9.60;99.90
12015;DHT22;6066;48.138;16.402;2023-02-22T03:45:26;9.70;99.90
12015;DHT22;6066;48.138;16.402;2023-02-22T03:47:56;9.70;99.90
12015;DHT22;6066;48.138;16.402;2023-02-22T03:50:27;9.70;99.90
12015;DHT22;6066;48.138;16.402;2023-02-22T03:52:54;9.70;99.90
12015;DHT22;6066;48.138;16.402;2023-02-22T03:55:24;9.70;99.90
12015;DHT22;6066;48.138;16.402;2023-02-22T03:57:53;9.70;99.90
12015;DHT22;6066;48.138;16.402;2023-02-22T04:00:23;9.70;99.90
12015;DHT22;6066;48.138;16.402;2023-02-22T04:02:50;9.70;99.90
12015;DHT22;6066;48.138;16.402;2023-02-22T04:05:17;9.70;99.90
12015;DHT22;6066;48.138;16.402;2023-02-22T04:07:43;9.70;99.90
12015;DHT22;6066;48.138;16.402;2023-02-22T04:10:10;9.70;99.90
12015;DHT22;6066;48.138;16.402;2023-02-22T04:12:38;9.80;99.90
12015;DHT22;6066;48.138;16.402;2023-02-22T04:15:06;9.80;99.90
12015;DHT22;6066;48.138;16.402;2023-02-22T04:17:33;9.80;99.90
12015;DHT22;6066;48.138;16.402;2023-02-22T04:20:00;9.90;99.90
12015;DHT22;6066;48.138;16.402;2023-02-22T04:22:27;9.90;99.90
12015;DHT22;6066;48.138;16.402;2023-02-22T04:24:53;9.90;99.90
12015;DHT22;6066;48.138;16.402;2023-02-22T04:27:20;9.90;99.90
12015;DHT22;6066;48.138;16.402;2023-02-22T04:29:48;9.80;99.90
12015;DHT22;6066;48.138;16.402;2023-02-22T04:32:15;9.90;99.90
12015;DHT22;6066;48.138;16.402;2023-02-22T04:34:41;9.90;99.90
12015;DHT22;6066;48.138;16.402;2023-02-22T04:37:08;9.90;99.90
12015;DHT22;6066;48.138;16.402;2023-02-22T04:39:35;9.90;99.90
12015;DHT22;6066;48.138;16.402;2023-02-22T04:42:02;9.90;99.90
12015;DHT22;6066;48.138;16.402;2023-02-22T04:44:29;9.90;99.90
12015;DHT22;6066;48.138;16.402;2023-02-22T04:46:57;9.90;99.90
12015;DHT22;6066;48.138;16.402;2023-02-22T04:49:24;9.90;99.90
12015;DHT22;6066;48.138;16.402;2023-02-22T04:51:51;9.90;99.90
12015;DHT22;6066;48.138;16.402;2023-02-22T04:54:18;10.00;99.90
12015;DHT22;6066;48.138;16.402;2023-02-22T04:56:44;10.00;99.90
12015;DHT22;6066;48.138;16.402;2023-02-22T04:59:11;10.00;99.90
12015;DHT22;6066;48.138;16.402;2023-02-22T05:01:38;10.00;99.90
12015;DHT22;6066;48.138;16.402;2023-02-22T05:04:06;10.00;99.90
12015;DHT22;6066;48.138;16.402;2023-02-22T05:06:33;10.00;99.90
12015;DHT22;6066;48.138;16.402;2023-02-22T05:08:59;10.00;99.90
12015;DHT22;6066;48.138;16.402;2023-02-22T05:11:26;10.00;99.90
12015;DHT22;6066;48.138;16.402;2023-02-22T05:13:53;10.00;99.90
12015;DHT22;6066;48.138;16.402;2023-02-22T05:16:20;10.00;99.90
12015;DHT22;6066;48.138;16.402;2023-02-22T05:18:46;10.10;99.90
12015;DHT22;6066;48.138;16.402;2023-02-22T05:21:14;10.00;99.90
12015;DHT22;6066;48.138;16.402;2023-02-22T05:23:41;10.00;99.90
12015;DHT22;6066;48.138;16.402;2023-02-22T05:26:08;9.90;99.90
12015;DHT22;6066;48.138;16.402;2023-02-22T05:28:35;9.80;99.90
12015;DHT22;6066;48.138;16.402;2023-02-22T05:31:01;9.80;99.90
12015;DHT22;6066;48.138;16.402;2023-02-22T05:33:28;9.70;99.90
12015;DHT22;6066;48.138;16.402;2023-02-22T05:35:55;9.70;99.90
12015;DHT22;6066;48.138;16.402;2023-02-22T05:38:23;9.60;99.90
12015;DHT22;6066;48.138;16.402;2023-02-22T05:40:49;9.60;99.90
12015;DHT22;6066;48.138;16.402;2023-02-22T05:43:16;9.60;99.90
12015;DHT22;6066;48.138;16.402;2023-02-22T05:45:43;9.50;99.90
12015;DHT22;6066;48.138;16.402;2023-02-22T05:48:09;9.50;99.90
12015;DHT22;6066;48.138;16.402;2023-02-22T05:50:37;9.50;99.90
12015;DHT22;6066;48.138;16.402;2023-02-22T05:53:03;9.40;99.90
12015;DHT22;6066;48.138;16.402;2023-02-22T05:55:32;9.40;99.90
12015;DHT22;6066;48.138;16.402;2023-02-22T05:57:58;9.30;99.90
12015;DHT22;6066;48.138;16.402;2023-02-22T06:00:27;9.40;99.90
12015;DHT22;6066;48.138;16.402;2023-02-22T06:02:54;9.40;99.90
12015;DHT22;6066;48.138;16.402;2023-02-22T06:05:29;9.30;99.90
12015;DHT22;6066;48.138;16.402;2023-02-22T06:07:56;9.30;99.90
12015;DHT22;6066;48.138;16.402;2023-02-22T06:10:23;9.30;99.90
12015;DHT22;6066;48.138;16.402;2023-02-22T06:12:51;9.20;99.90
12015;DHT22;6066;48.138;16.402;2023-02-22T06:15:18;9.30;99.90
12015;DHT22;6066;48.138;16.402;2023-02-22T06:17:45;9.20;99.90
12015;DHT22;6066;48.138;16.402;2023-02-22T06:20:13;9.20;99.90
12015;DHT22;6066;48.138;16.402;2023-02-22T06:22:41;9.20;99.90
12015;DHT22;6066;48.138;16.402;2023-02-22T06:25:08;9.20;99.90
12015;DHT22;6066;48.138;16.402;2023-02-22T06:27:35;9.20;99.90
12015;DHT22;6066;48.138;16.402;2023-02-22T06:30:03;9.20;99.90
12015;DHT22;6066;48.138;16.402;2023-02-22T06:32:30;9.20;99.90
12015;DHT22;6066;48.138;16.402;2023-02-22T06:34:56;9.20;99.90
12015;DHT22;6066;48.138;16.402;2023-02-22T06:37:23;9.20;99.90
12015;DHT22;6066;48.138;16.402;2023-02-22T06:39:50;9.20;99.90
12015;DHT22;6066;48.138;16.402;2023-02-22T06:42:16;9.20;99.90
12015;DHT22;6066;48.138;16.402;2023-02-22T06:44:43;9.30;99.90
12015;DHT22;6066;48.138;16.402;2023-02-22T06:47:11;9.30;99.90
12015;DHT22;6066;48.138;16.402;2023-02-22T06:49:38;9.30;99.90
12015;DHT22;6066;48.138;16.402;2023-02-22T06:52:05;9.40;99.90
12015;DHT22;6066;48.138;16.402;2023-02-22T06:54:32;9.50;99.90
12015;DHT22;6066;48.138;16.402;2023-02-22T06:56:59;9.50;99.90
12015;DHT22;6066;48.138;16.402;2023-02-22T06:59:25;9.60;99.90
12015;DHT22;6066;48.138;16.402;2023-02-22T07:01:52;9.70;99.90
12015;DHT22;6066;48.138;16.402;2023-02-22T07:04:20;9.70;99.90
12015;DHT22;6066;48.138;16.402;2023-02-22T07:06:48;9.80;99.90
12015;DHT22;6066;48.138;16.402;2023-02-22T07:09:15;9.90;99.90
12015;DHT22;6066;48.138;16.402;2023-02-22T07:11:42;9.90;99.90
12015;DHT22;6066;48.138;16.402;2023-02-22T07:14:09;10.00;99.90
12015;DHT22;6066;48.138;16.402;2023-02-22T07:16:36;10.10;99.90
12015;DHT22;6066;48.138;16.402;2023-02-22T07:19:02;10.10;99.90
12015;DHT22;6066;48.138;16.402;2023-02-22T07:21:30;10.10;99.90
12015;DHT22;6066;48.138;16.402;2023-02-22T07:23:57;10.20;99.90
12015;DHT22;6066;48.138;16.402;2023-02-22T07:26:24;10.30;99.90
12015;DHT22;6066;48.138;16.402;2023-02-22T07:28:51;10.30;99.90
12015;DHT22;6066;48.138;16.402;2023-02-22T07:31:18;10.40;99.90
12015;DHT22;6066;48.138;16.402;2023-02-22T07:33:44;10.40;99.90
12015;DHT22;6066;48.138;16.402;2023-02-22T07:36:11;10.40;99.90
12015;DHT22;6066;48.138;16.402;2023-02-22T07:38:43;10.50;99.90
12015;DHT22;6066;48.138;16.402;2023-02-22T07:41:10;10.50;99.90
12015;DHT22;6066;48.138;16.402;2023-02-22T07:43:37;10.60;99.90
12015;DHT22;6066;48.138;16.402;2023-02-22T07:46:03;10.70;99.90
12015;DHT22;6066;48.138;16.402;2023-02-22T07:48:30;10.70;99.90
12015;DHT22;6066;48.138;16.402;2023-02-22T07:50:57;10.80;99.90
12015;DHT22;6066;48.138;16.402;2023-02-22T07:53:25;10.80;99.90
12015;DHT22;6066;48.138;16.402;2023-02-22T07:55:56;10.80;99.90
12015;DHT22;6066;48.138;16.402;2023-02-22T07:58:23;10.90;99.90
12015;DHT22;6066;48.138;16.402;2023-02-22T08:00:50;11.00;99.90
12015;DHT22;6066;48.138;16.402;2023-02-22T08:03:17;11.10;99.90
12015;DHT22;6066;48.138;16.402;2023-02-22T08:05:45;11.20;99.90
12015;DHT22;6066;48.138;16.402;2023-02-22T08:08:11;11.20;99.90
12015;DHT22;6066;48.138;16.402;2023-02-22T08:10:39;11.30;99.90
12015;DHT22;6066;48.138;16.402;2023-02-22T08:13:07;11.30;99.90
12015;DHT22;6066;48.138;16.402;2023-02-22T08:15:34;11.50;99.90
12015;DHT22;6066;48.138;16.402;2023-02-22T08:18:02;11.50;99.90
12015;DHT22;6066;48.138;16.402;2023-02-22T08:20:29;11.60;99.90
12015;DHT22;6066;48.138;16.402;2023-02-22T08:22:56;11.60;99.90
12015;DHT22;6066;48.138;16.402;2023-02-22T08:25:23;11.70;99.90
12015;DHT22;6066;48.138;16.402;2023-02-22T08:27:50;11.80;99.90
12015;DHT22;6066;48.138;16.402;2023-02-22T08:30:24;11.80;99.90
12015;DHT22;6066;48.138;16.402;2023-02-22T08:32:51;11.90;99.90
12015;DHT22;6066;48.138;16.402;2023-02-22T08:35:18;11.90;99.90
12015;DHT22;6066;48.138;16.402;2023-02-22T08:37:45;12.00;99.90
12015;DHT22;6066;48.138;16.402;2023-02-22T08:40:14;12.10;99.90
12015;DHT22;6066;48.138;16.402;2023-02-22T08:42:41;12.00;99.90
12015;DHT22;6066;48.138;16.402;2023-02-22T08:45:08;12.10;99.90
12015;DHT22;6066;48.138;16.402;2023-02-22T08:47:36;12.10;99.90
12015;DHT22;6066;48.138;16.402;2023-02-22T08:50:03;12.20;99.90
12015;DHT22;6066;48.138;16.402;2023-02-22T08:52:30;12.20;99.90
12015;DHT22;6066;48.138;16.402;2023-02-22T08:54:57;12.20;99.90
12015;DHT22;6066;48.138;16.402;2023-02-22T08:57:24;12.30;99.90
12015;DHT22;6066;48.138;16.402;2023-02-22T08:59:50;12.30;99.90
12015;DHT22;6066;48.138;16.402;2023-02-22T09:02:19;12.40;99.90
12015;DHT22;6066;48.138;16.402;2023-02-22T09:04:47;12.40;99.90
12015;DHT22;6066;48.138;16.402;2023-02-22T09:07:15;12.40;99.90
12015;DHT22;6066;48.138;16.402;2023-02-22T09:09:41;12.50;99.90
12015;DHT22;6066;48.138;16.402;2023-02-22T09:12:08;12.50;99.90
12015;DHT22;6066;48.138;16.402;2023-02-22T09:14:35;12.50;99.90
12015;DHT22;6066;48.138;16.402;2023-02-22T09:17:02;12.50;99.90
12015;DHT22;6066;48.138;16.402;2023-02-22T09:19:28;12.50;99.90
12015;DHT22;6066;48.138;16.402;2023-02-22T09:21:57;12.50;99.90
12015;DHT22;6066;48.138;16.402;2023-02-22T09:24:24;12.60;99.90
12015;DHT22;6066;48.138;16.402;2023-02-22T09:26:51;12.60;99.90
12015;DHT22;6066;48.138;16.402;2023-02-22T09:29:19;12.70;99.90
12015;DHT22;6066;48.138;16.402;2023-02-22T09:31:47;12.70;99.90
12015;DHT22;6066;48.138;16.402;2023-02-22T09:34:14;12.80;99.90
12015;DHT22;6066;48.138;16.402;2023-02-22T09:36:41;12.80;99.90
12015;DHT22;6066;48.138;16.402;2023-02-22T09:39:09;12.90;99.90
12015;DHT22;6066;48.138;16.402;2023-02-22T09:41:38;12.90;99.90
12015;DHT22;6066;48.138;16.402;2023-02-22T09:44:10;13.00;99.90
12015;DHT22;6066;48.138;16.402;2023-02-22T09:46:39;13.00;99.90
12015;DHT22;6066;48.138;16.402;2023-02-22T09:49:15;13.00;99.90
12015;DHT22;6066;48.138;16.402;2023-02-22T09:51:44;13.10;99.90
12015;DHT22;6066;48.138;16.402;2023-02-22T09:54:16;13.20;99.90
12015;DHT22;6066;48.138;16.402;2023-02-22T09:56:45;13.20;99.90
12015;DHT22;6066;48.138;16.402;2023-02-22T09:59:13;13.20;99.90
12015;DHT22;6066;48.138;16.402;2023-02-22T10:01:44;13.20;99.90
12015;DHT22;6066;48.138;16.402;2023-02-22T10:04:12;13.20;99.90
12015;DHT22;6066;48.138;16.402;2023-02-22T10:06:43;13.20;99.90
12015;DHT22;6066;48.138;16.402;2023-02-22T10:09:19;13.30;99.90
12015;DHT22;6066;48.138;16.402;2023-02-22T10:11:51;13.30;99.90
12015;DHT22;6066;48.138;16.402;2023-02-22T10:14:30;13.30;99.90
12015;DHT22;6066;48.138;16.402;2023-02-22T10:17:02;13.40;99.90
12015;DHT22;6066;48.138;16.402;2023-02-22T10:19:31;13.40;99.90
12015;DHT22;6066;48.138;16.402;2023-02-22T10:22:06;13.40;99.90
12015;DHT22;6066;48.138;16.402;2023-02-22T10:24:40;13.50;99.90
12015;DHT22;6066;48.138;16.402;2023-02-22T10:27:12;13.60;99.90
12015;DHT22;6066;48.138;16.402;2023-02-22T10:29:41;13.70;99.90
12015;DHT22;6066;48.138;16.402;2023-02-22T10:32:10;13.80;99.90
12015;DHT22;6066;48.138;16.402;2023-02-22T10:34:40;13.90;99.90
12015;DHT22;6066;48.138;16.402;2023-02-22T10:37:14;14.00;99.90
12015;DHT22;6066;48.138;16.402;2023-02-22T10:39:43;14.10;99.90
12015;DHT22;6066;48.138;16.402;2023-02-22T10:42:11;14.20;99.90
12015;DHT22;6066;48.138;16.402;2023-02-22T10:44:38;14.20;99.90
12015;DHT22;6066;48.138;16.402;2023-02-22T10:47:05;14.20;99.90
12015;DHT22;6066;48.138;16.402;2023-02-22T10:49:34;14.20;99.90
12015;DHT22;6066;48.138;16.402;2023-02-22T10:52:03;14.10;99.90
12015;DHT22;6066;48.138;16.402;2023-02-22T10:54:37;14.00;99.90
12015;DHT22;6066;48.138;16.402;2023-02-22T10:57:06;14.00;99.90
12015;DHT22;6066;48.138;16.402;2023-02-22T10:59:34;14.00;99.90
12015;DHT22;6066;48.138;16.402;2023-02-22T11:02:06;14.20;99.90
12015;DHT22;6066;48.138;16.402;2023-02-22T11:04:43;14.20;99.90
12015;DHT22;6066;48.138;16.402;2023-02-22T11:07:15;14.20;99.90
12015;DHT22;6066;48.138;16.402;2023-02-22T11:09:47;14.30;99.90
12015;DHT22;6066;48.138;16.402;2023-02-22T11:12:17;14.30;99.90
12015;DHT22;6066;48.138;16.402;2023-02-22T11:14:45;14.20;99.90
12015;DHT22;6066;48.138;16.402;2023-02-22T11:17:13;14.20;99.90
12015;DHT22;6066;48.138;16.402;2023-02-22T11:19:44;14.30;99.90
12015;DHT22;6066;48.138;16.402;2023-02-22T11:22:12;14.20;99.90
12015;DHT22;6066;48.138;16.402;2023-02-22T11:24:43;14.10;99.90
12015;DHT22;6066;48.138;16.402;2023-02-22T11:27:20;14.10;99.90
12015;DHT22;6066;48.138;16.402;2023-02-22T11:29:48;14.00;99.90
12015;DHT22;6066;48.138;16.402;2023-02-22T11:32:17;14.00;99.90
12015;DHT22;6066;48.138;16.402;2023-02-22T11:34:47;14.30;99.90
12015;DHT22;6066;48.138;16.402;2023-02-22T11:37:27;14.40;99.90
12015;DHT22;6066;48.138;16.402;2023-02-22T11:40:05;14.50;99.90
12015;DHT22;6066;48.138;16.402;2023-02-22T11:42:37;14.60;99.90
12015;DHT22;6066;48.138;16.402;2023-02-22T11:45:08;14.70;99.90
12015;DHT22;6066;48.138;16.402;2023-02-22T11:47:44;14.70;99.90
12015;DHT22;6066;48.138;16.402;2023-02-22T11:50:16;14.60;99.90
12015;DHT22;6066;48.138;16.402;2023-02-22T11:52:44;14.60;99.90
12015;DHT22;6066;48.138;16.402;2023-02-22T11:55:13;14.50;99.90
12015;DHT22;6066;48.138;16.402;2023-02-22T11:57:54;14.50;99.90
12015;DHT22;6066;48.138;16.402;2023-02-22T12:00:27;14.50;99.90
12015;DHT22;6066;48.138;16.402;2023-02-22T12:03:11;14.60;99.90
12015;DHT22;6066;48.138;16.402;2023-02-22T12:05:53;14.60;99.90
12015;DHT22;6066;48.138;16.402;2023-02-22T12:08:26;14.70;99.90
12015;DHT22;6066;48.138;16.402;2023-02-22T12:10:56;14.70;99.90
12015;DHT22;6066;48.138;16.402;2023-02-22T12:13:28;14.60;99.90
12015;DHT22;6066;48.138;16.402;2023-02-22T12:15:58;14.60;99.90
12015;DHT22;6066;48.138;16.402;2023-02-22T12:18:29;14.50;99.90
12015;DHT22;6066;48.138;16.402;2023-02-22T12:20:59;14.50;99.90
12015;DHT22;6066;48.138;16.402;2023-02-22T12:23:27;14.60;99.90
12015;DHT22;6066;48.138;16.402;2023-02-22T12:25:56;14.70;99.90
12015;DHT22;6066;48.138;16.402;2023-02-22T12:28:26;14.80;99.90
12015;DHT22;6066;48.138;16.402;2023-02-22T12:31:00;14.90;99.90
12015;DHT22;6066;48.138;16.402;2023-02-22T12:33:30;14.90;99.90
12015;DHT22;6066;48.138;16.402;2023-02-22T12:36:01;14.90;99.90
12015;DHT22;6066;48.138;16.402;2023-02-22T12:38:29;14.90;99.90
12015;DHT22;6066;48.138;16.402;2023-02-22T12:41:01;14.90;99.90
12015;DHT22;6066;48.138;16.402;2023-02-22T12:43:29;14.90;99.90
12015;DHT22;6066;48.138;16.402;2023-02-22T12:46:01;14.80;99.90
12015;DHT22;6066;48.138;16.402;2023-02-22T12:48:31;14.90;99.90
12015;DHT22;6066;48.138;16.402;2023-02-22T12:51:12;14.90;99.90
12015;DHT22;6066;48.138;16.402;2023-02-22T12:53:42;15.00;99.90
12015;DHT22;6066;48.138;16.402;2023-02-22T12:56:14;15.10;99.90
12015;DHT22;6066;48.138;16.402;2023-02-22T12:58:44;15.20;99.90
12015;DHT22;6066;48.138;16.402;2023-02-22T13:01:13;15.20;99.90
12015;DHT22;6066;48.138;16.402;2023-02-22T13:03:44;15.10;99.90
12015;DHT22;6066;48.138;16.402;2023-02-22T13:06:22;15.10;99.90
12015;DHT22;6066;48.138;16.402;2023-02-22T13:08:55;15.00;99.90
12015;DHT22;6066;48.138;16.402;2023-02-22T13:11:30;15.10;99.90
12015;DHT22;6066;48.138;16.402;2023-02-22T13:14:03;15.00;99.90
12015;DHT22;6066;48.138;16.402;2023-02-22T13:16:34;14.90;99.90
12015;DHT22;6066;48.138;16.402;2023-02-22T13:19:05;14.90;99.90
12015;DHT22;6066;48.138;16.402;2023-02-22T13:21:39;14.90;99.90
12015;DHT22;6066;48.138;16.402;2023-02-22T13:24:13;14.90;99.90
12015;DHT22;6066;48.138;16.402;2023-02-22T13:26:41;14.90;99.90
12015;DHT22;6066;48.138;16.402;2023-02-22T13:29:11;14.80;99.90
12015;DHT22;6066;48.138;16.402;2023-02-22T13:31:53;14.80;99.90
12015;DHT22;6066;48.138;16.402;2023-02-22T13:34:27;14.80;99.90
12015;DHT22;6066;48.138;16.402;2023-02-22T13:37:02;14.70;99.90
12015;DHT22;6066;48.138;16.402;2023-02-22T13:39:45;14.70;99.90
12015;DHT22;6066;48.138;16.402;2023-02-22T13:42:21;14.70;99.90
12015;DHT22;6066;48.138;16.402;2023-02-22T13:47:51;14.60;99.90
12015;DHT22;6066;48.138;16.402;2023-02-22T13:53:04;14.60;99.90
12015;DHT22;6066;48.138;16.402;2023-02-22T13:55:32;14.60;99.90
12015;DHT22;6066;48.138;16.402;2023-02-22T13:58:00;14.60;99.90
12015;DHT22;6066;48.138;16.402;2023-02-22T14:06:10;14.70;99.90
12015;DHT22;6066;48.138;16.402;2023-02-22T14:08:57;14.60;99.90
12015;DHT22;6066;48.138;16.402;2023-02-22T14:14:18;14.50;99.90
12015;DHT22;6066;48.138;16.402;2023-02-22T14:17:14;14.60;99.90
12015;DHT22;6066;48.138;16.402;2023-02-22T14:19:40;14.60;99.90
12015;DHT22;6066;48.138;16.402;2023-02-22T14:22:08;14.70;99.90
12015;DHT22;6066;48.138;16.402;2023-02-22T14:24:40;14.70;99.90
12015;DHT22;6066;48.138;16.402;2023-02-22T14:27:08;14.70;99.90
12015;DHT22;6066;48.138;16.402;2023-02-22T14:29:35;14.60;99.90
12015;DHT22;6066;48.138;16.402;2023-02-22T14:32:04;14.60;99.90
12015;DHT22;6066;48.138;16.402;2023-02-22T14:34:42;14.50;99.90
12015;DHT22;6066;48.138;16.402;2023-02-22T14:37:13;14.50;99.90
12015;DHT22;6066;48.138;16.402;2023-02-22T14:39:42;14.50;99.90
12015;DHT22;6066;48.138;16.402;2023-02-22T14:42:11;14.40;99.90
12015;DHT22;6066;48.138;16.402;2023-02-22T14:44:39;14.30;99.90
12015;DHT22;6066;48.138;16.402;2023-02-22T14:47:08;14.10;99.90
12015;DHT22;6066;48.138;16.402;2023-02-22T14:49:40;13.90;99.90
12015;DHT22;6066;48.138;16.402;2023-02-22T14:52:14;13.80;99.90
12015;DHT22;6066;48.138;16.402;2023-02-22T14:54:48;13.70;99.90
12015;DHT22;6066;48.138;16.402;2023-02-22T14:57:18;13.60;99.90
12015;DHT22;6066;48.138;16.402;2023-02-22T14:59:55;13.50;99.90
12015;DHT22;6066;48.138;16.402;2023-02-22T15:02:24;13.50;99.90
12015;DHT22;6066;48.138;16.402;2023-02-22T15:04:51;13.40;99.90
12015;DHT22;6066;48.138;16.402;2023-02-22T15:07:21;13.40;99.90
12015;DHT22;6066;48.138;16.402;2023-02-22T15:09:52;13.30;99.90
12015;DHT22;6066;48.138;16.402;2023-02-22T15:12:29;13.30;99.90
12015;DHT22;6066;48.138;16.402;2023-02-22T15:15:08;13.20;99.90
12015;DHT22;6066;48.138;16.402;2023-02-22T15:17:37;13.20;99.90
12015;DHT22;6066;48.138;16.402;2023-02-22T15:20:05;13.10;99.90
12015;DHT22;6066;48.138;16.402;2023-02-22T15:22:36;13.00;99.90
12015;DHT22;6066;48.138;16.402;2023-02-22T15:25:05;12.90;99.90
12015;DHT22;6066;48.138;16.402;2023-02-22T15:27:35;12.80;99.90
12015;DHT22;6066;48.138;16.402;2023-02-22T15:30:05;12.70;99.90
12015;DHT22;6066;48.138;16.402;2023-02-22T15:32:36;12.60;99.90
12015;DHT22;6066;48.138;16.402;2023-02-22T15:35:12;12.50;99.90
12015;DHT22;6066;48.138;16.402;2023-02-22T15:37:46;12.40;99.90
12015;DHT22;6066;48.138;16.402;2023-02-22T15:40:16;12.30;99.90
12015;DHT22;6066;48.138;16.402;2023-02-22T15:42:47;12.30;99.90
12015;DHT22;6066;48.138;16.402;2023-02-22T15:45:19;12.20;99.90
12015;DHT22;6066;48.138;16.402;2023-02-22T15:47:50;12.20;99.90
12015;DHT22;6066;48.138;16.402;2023-02-22T15:50:20;12.10;99.90
12015;DHT22;6066;48.138;16.402;2023-02-22T15:52:56;12.10;99.90
12015;DHT22;6066;48.138;16.402;2023-02-22T15:55:25;12.00;99.90
12015;DHT22;6066;48.138;16.402;2023-02-22T15:57:54;11.90;99.90
12015;DHT22;6066;48.138;16.402;2023-02-22T16:00:25;11.80;99.90
12015;DHT22;6066;48.138;16.402;2023-02-22T16:03:01;11.70;99.90
12015;DHT22;6066;48.138;16.402;2023-02-22T16:05:32;11.60;99.90
12015;DHT22;6066;48.138;16.402;2023-02-22T16:08:02;11.60;99.90